createdAt,value
2023-05-19T00:01:18.828Z,92732.34
2023-05-19T00:03:57.779Z,92738.56
2023-05-19T00:06:31.882Z,92725.25
2023-05-19T00:09:02.649Z,92733.75
2023-05-19T00:11:31.939Z,92727.63
2023-05-19T00:14:01.898Z,92723.81
2023-05-19T00:16:32.047Z,92725.75
2023-05-19T00:19:01.380Z,92733.38
2023-05-19T00:21:32.399Z,92719.97
2023-05-19T00:24:01.925Z,92719.88
2023-05-19T00:26:30.757Z,92730.75
2023-05-19T00:28:59.257Z,92725.34
2023-05-19T00:31:27.862Z,92723.00
2023-05-19T00:33:56.704Z,92714.94
2023-05-19T00:36:25.849Z,92717.78
2023-05-19T00:38:55.960Z,92720.31
2023-05-19T00:41:24.708Z,92721.06
2023-05-19T00:43:53.288Z,92719.22
2023-05-19T00:46:23.306Z,92714.44
2023-05-19T00:48:51.852Z,92709.00
2023-05-19T00:51:20.530Z,92706.88
2023-05-19T00:53:52.157Z,92708.28
2023-05-19T00:56:22.855Z,92706.59
2023-05-19T00:58:53.156Z,92711.16
2023-05-19T01:01:22.503Z,92710.41
2023-05-19T01:03:51.549Z,92711.22
2023-05-19T01:06:20.934Z,92703.94
2023-05-19T01:08:49.459Z,92704.69
2023-05-19T01:11:17.976Z,92709.69
2023-05-19T01:13:47.967Z,92702.81
2023-05-19T01:16:25.018Z,92694.44
2023-05-19T01:19:03.957Z,92701.19
2023-05-19T01:22:13.507Z,92699.56
2023-05-19T01:25:16.389Z,92693.72
2023-05-19T01:28:14.094Z,92687.91
2023-05-19T01:30:46.554Z,92692.56
2023-05-19T01:33:16.801Z,92697.16
2023-05-19T01:35:45.923Z,92691.25
2023-05-19T01:38:17.789Z,92692.56
2023-05-19T01:40:47.881Z,92688.59
2023-05-19T01:43:22.567Z,92687.28
2023-05-19T01:45:53.394Z,92683.47
2023-05-19T01:48:22.353Z,92676.66
2023-05-19T01:50:51.402Z,92670.94
2023-05-19T01:53:20.082Z,92673.19
2023-05-19T01:55:51.977Z,92684.47
2023-05-19T01:58:31.314Z,92679.38
2023-05-19T02:01:10.040Z,92670.91
2023-05-19T02:04:03.724Z,92684.34
2023-05-19T02:06:41.760Z,92681.03
2023-05-19T02:09:17.758Z,92678.53
2023-05-19T02:11:54.242Z,92677.88
2023-05-19T02:14:31.833Z,92677.38
2023-05-19T02:17:03.855Z,92681.13
2023-05-19T02:19:34.855Z,92669.84
2023-05-19T02:22:03.647Z,92685.16
2023-05-19T02:24:32.314Z,92676.84
2023-05-19T02:27:01.259Z,92674.63
2023-05-19T02:29:29.868Z,92688.88
2023-05-19T02:31:58.562Z,92686.25
2023-05-19T02:34:28.756Z,92686.63
2023-05-19T02:36:57.774Z,92688.84
2023-05-19T02:39:26.510Z,92684.31
2023-05-19T02:41:55.090Z,92681.97
2023-05-19T02:44:23.678Z,92677.16
2023-05-19T02:46:52.473Z,92678.38
2023-05-19T02:49:21.019Z,92687.94
2023-05-19T02:51:50.988Z,92680.75
2023-05-19T02:54:19.563Z,92683.59
2023-05-19T02:56:48.078Z,92682.25
2023-05-19T02:59:16.646Z,92684.47
2023-05-19T03:01:45.247Z,92679.34
2023-05-19T03:04:14.108Z,92681.03
2023-05-19T03:06:42.673Z,92675.75
2023-05-19T03:09:13.503Z,92672.53
2023-05-19T03:11:42.056Z,92677.06
2023-05-19T03:14:10.632Z,92674.66
2023-05-19T03:16:41.329Z,92673.44
2023-05-19T03:19:10.547Z,92669.00
2023-05-19T03:21:39.331Z,92673.31
2023-05-19T03:24:08.418Z,92663.38
2023-05-19T03:26:38.296Z,92667.13
2023-05-19T03:29:07.432Z,92672.09
2023-05-19T03:31:35.960Z,92667.66
2023-05-19T03:34:04.518Z,92679.25
2023-05-19T03:36:33.154Z,92671.63
2023-05-19T03:39:01.884Z,92678.19
2023-05-19T03:41:30.374Z,92677.66
2023-05-19T03:44:00.678Z,92673.88
2023-05-19T03:46:29.224Z,92676.38
2023-05-19T03:48:57.838Z,92687.31
2023-05-19T03:51:28.761Z,92682.09
2023-05-19T03:53:57.499Z,92678.59
2023-05-19T03:56:27.782Z,92684.53
2023-05-19T03:58:56.324Z,92685.81
2023-05-19T04:01:26.259Z,92686.03
2023-05-19T04:03:55.161Z,92678.06
2023-05-19T04:06:23.767Z,92680.84
2023-05-19T04:11:41.676Z,92680.97
2023-05-19T04:14:10.814Z,92684.25
2023-05-19T04:16:42.003Z,92693.97
2023-05-19T04:19:10.679Z,92690.25
2023-05-19T04:21:39.320Z,92685.41
2023-05-19T04:24:08.647Z,92695.50
2023-05-19T04:26:38.725Z,92685.03
2023-05-19T04:29:07.543Z,92689.44
2023-05-19T04:31:36.546Z,92685.84
2023-05-19T04:34:07.985Z,92689.53
2023-05-19T04:36:36.734Z,92683.03
2023-05-19T04:39:08.287Z,92679.63
2023-05-19T04:41:40.614Z,92679.63
2023-05-19T04:44:10.119Z,92684.84
2023-05-19T04:46:38.649Z,92683.34
2023-05-19T04:49:08.596Z,92685.44
2023-05-19T04:51:41.336Z,92679.84
2023-05-19T04:54:10.238Z,92688.66
2023-05-19T04:56:38.904Z,92693.59
2023-05-19T04:59:07.512Z,92697.41
2023-05-19T05:01:40.332Z,92691.81
2023-05-19T05:04:10.373Z,92690.19
2023-05-19T05:06:41.428Z,92692.63
2023-05-19T05:09:10.580Z,92680.84
2023-05-19T05:11:40.002Z,92692.81
2023-05-19T05:14:09.313Z,92678.78
2023-05-19T05:16:38.773Z,92683.25
2023-05-19T05:19:09.543Z,92680.75
2023-05-19T05:21:39.055Z,92679.66
2023-05-19T05:24:09.169Z,92680.88
2023-05-19T05:26:38.277Z,92673.22
2023-05-19T05:29:06.979Z,92678.03
2023-05-19T05:31:35.552Z,92674.00
2023-05-19T05:34:04.237Z,92677.81
2023-05-19T05:36:35.106Z,92681.75
2023-05-19T05:39:04.298Z,92682.06
2023-05-19T05:41:35.575Z,92677.09
2023-05-19T05:44:04.515Z,92681.31
2023-05-19T05:46:33.852Z,92681.75
2023-05-19T05:49:03.152Z,92682.19
2023-05-19T05:51:34.202Z,92683.75
2023-05-19T05:54:04.205Z,92683.13
2023-05-19T05:56:33.888Z,92680.53
2023-05-19T05:59:03.445Z,92675.59
2023-05-19T06:01:33.676Z,92683.75
2023-05-19T06:04:04.044Z,92679.47
2023-05-19T06:06:34.166Z,92677.19
2023-05-19T06:09:02.958Z,92672.66
2023-05-19T06:11:31.920Z,92673.44
2023-05-19T06:14:00.663Z,92671.09
2023-05-19T06:16:29.292Z,92671.19
2023-05-19T06:18:59.049Z,92665.78
2023-05-19T06:21:27.722Z,92659.69
2023-05-19T06:23:57.604Z,92668.97
2023-05-19T06:26:27.159Z,92659.31
2023-05-19T06:28:55.736Z,92658.94
2023-05-19T06:31:26.593Z,92664.38
2023-05-19T06:33:55.624Z,92675.16
2023-05-19T06:36:24.336Z,92670.94
2023-05-19T06:38:52.994Z,92658.94
2023-05-19T06:41:22.976Z,92661.63
2023-05-19T06:43:51.713Z,92666.97
2023-05-19T06:46:20.224Z,92671.59
2023-05-19T06:48:48.759Z,92669.56
2023-05-19T06:51:21.826Z,92674.97
2023-05-19T06:53:50.471Z,92666.47
2023-05-19T06:56:19.208Z,92671.78
2023-05-19T06:58:49.146Z,92679.19
2023-05-19T07:01:17.765Z,92672.44
2023-05-19T07:03:46.947Z,92670.19
2023-05-19T07:06:16.180Z,92673.44
2023-05-19T07:08:44.922Z,92671.16
2023-05-19T07:11:14.242Z,92669.16
2023-05-19T07:13:42.758Z,92666.84
2023-05-19T07:16:12.686Z,92668.22
2023-05-19T07:18:41.515Z,92673.09
2023-05-19T07:21:10.061Z,92674.28
2023-05-19T07:23:38.566Z,92669.91
2023-05-19T07:26:07.125Z,92668.19
2023-05-19T07:28:35.768Z,92677.25
2023-05-19T07:31:04.365Z,92676.16
2023-05-19T07:33:34.233Z,92676.25
2023-05-19T07:36:02.821Z,92672.69
2023-05-19T07:38:34.613Z,92678.19
2023-05-19T07:41:04.581Z,92660.81
2023-05-19T07:43:33.209Z,92671.88
2023-05-19T07:46:02.355Z,92672.31
2023-05-19T07:48:30.995Z,92663.78
2023-05-19T07:51:01.000Z,92667.53
2023-05-19T07:53:29.585Z,92658.06
2023-05-19T07:55:58.808Z,92653.09
2023-05-19T07:58:27.830Z,92661.94
2023-05-19T08:00:59.113Z,92662.38
2023-05-19T08:03:28.284Z,92658.31
2023-05-19T08:05:57.642Z,92645.81
2023-05-19T08:08:27.586Z,92647.16
2023-05-19T08:10:56.144Z,92646.47
2023-05-19T08:13:24.691Z,92644.81
2023-05-19T08:15:54.491Z,92643.94
2023-05-19T08:18:23.019Z,92648.31
2023-05-19T08:20:51.541Z,92649.66
2023-05-19T08:23:20.773Z,92639.31
2023-05-19T08:25:50.786Z,92635.25
2023-05-19T08:28:19.321Z,92639.31
2023-05-19T08:30:47.876Z,92630.44
2023-05-19T08:33:16.446Z,92639.38
2023-05-19T08:35:45.354Z,92628.34
2023-05-19T08:38:14.349Z,92620.63
2023-05-19T08:40:44.139Z,92629.81
2023-05-19T08:43:14.443Z,92625.91
2023-05-19T08:45:46.540Z,92624.72
2023-05-19T08:48:16.314Z,92616.06
2023-05-19T08:50:55.061Z,92627.06
2023-05-19T08:53:34.767Z,92616.00
2023-05-19T08:56:11.012Z,92618.78
2023-05-19T08:58:44.141Z,92621.53
2023-05-19T09:01:17.032Z,92608.09
2023-05-19T09:03:50.683Z,92627.03
2023-05-19T09:06:19.428Z,92627.31
2023-05-19T09:08:48.531Z,92632.41
2023-05-19T09:11:17.168Z,92624.47
2023-05-19T09:13:47.134Z,92620.75
2023-05-19T09:16:15.846Z,92623.16
2023-05-19T09:18:56.697Z,92617.19
2023-05-19T09:21:31.625Z,92621.69
2023-05-19T09:24:05.467Z,92617.06
2023-05-19T09:26:39.924Z,92619.66
2023-05-19T09:29:18.609Z,92619.47
2023-05-19T09:31:51.938Z,92626.13
2023-05-19T09:34:21.244Z,92627.22
2023-05-19T09:36:52.007Z,92625.56
2023-05-19T09:39:22.738Z,92618.44
2023-05-19T09:41:53.679Z,92617.50
2023-05-19T09:44:29.892Z,92628.13
2023-05-19T09:47:00.020Z,92619.41
2023-05-19T09:49:31.410Z,92623.69
2023-05-19T09:52:03.479Z,92630.75
2023-05-19T09:54:32.652Z,92632.75
2023-05-19T09:57:03.981Z,92640.41
2023-05-19T09:59:34.800Z,92643.03
2023-05-19T10:02:03.678Z,92629.53
2023-05-19T10:04:32.716Z,92629.91
2023-05-19T10:07:05.756Z,92630.63
2023-05-19T10:09:35.622Z,92625.69
2023-05-19T10:12:05.570Z,92624.91
2023-05-19T10:14:35.575Z,92620.16
2023-05-19T10:17:04.384Z,92625.22
2023-05-19T10:19:33.246Z,92625.94
2023-05-19T10:22:01.828Z,92620.97
2023-05-19T10:24:30.338Z,92626.69
2023-05-19T10:27:06.060Z,92621.78
2023-05-19T10:29:39.556Z,92623.19
2023-05-19T10:32:13.358Z,92618.59
2023-05-19T10:35:20.945Z,92627.25
2023-05-19T10:38:00.425Z,92628.94
2023-05-19T10:40:34.395Z,92623.81
2023-05-19T10:43:18.007Z,92617.06
2023-05-19T10:45:52.719Z,92613.94
2023-05-19T10:48:22.362Z,92626.09
2023-05-19T10:50:55.136Z,92618.16
2023-05-19T10:53:23.777Z,92621.88
2023-05-19T10:55:53.847Z,92621.47
2023-05-19T10:58:50.801Z,92624.94
2023-05-19T11:01:25.028Z,92628.06
2023-05-19T11:03:55.116Z,92630.56
2023-05-19T11:06:29.084Z,92619.91
2023-05-19T11:09:05.137Z,92621.31
2023-05-19T11:11:48.259Z,92624.19
2023-05-19T11:14:19.165Z,92622.94
2023-05-19T11:16:54.667Z,92634.31
2023-05-19T11:19:29.126Z,92639.03
2023-05-19T11:21:59.417Z,92637.44
2023-05-19T11:24:40.206Z,92638.28
2023-05-19T11:27:38.352Z,92637.03
2023-05-19T11:30:15.189Z,92630.06
2023-05-19T11:32:49.141Z,92636.78
2023-05-19T11:35:21.481Z,92635.47
2023-05-19T11:37:52.439Z,92642.25
2023-05-19T11:40:23.031Z,92634.81
2023-05-19T11:42:51.624Z,92630.06
2023-05-19T11:45:27.136Z,92628.00
2023-05-19T11:48:02.003Z,92622.41
2023-05-19T11:50:33.376Z,92616.97
2023-05-19T11:53:03.071Z,92621.75
2023-05-19T11:55:32.358Z,92623.13
2023-05-19T11:58:05.450Z,92616.19
2023-05-19T12:00:41.120Z,92619.59
2023-05-19T12:03:11.871Z,92609.63
2023-05-19T12:05:45.735Z,92608.16
2023-05-19T12:08:15.167Z,92616.69
2023-05-19T12:10:43.762Z,92609.06
2023-05-19T12:13:12.712Z,92623.78
2023-05-19T12:15:41.235Z,92618.16
2023-05-19T12:18:11.373Z,92616.41
2023-05-19T12:20:40.059Z,92616.91
2023-05-19T12:23:08.729Z,92613.91
2023-05-19T12:25:38.482Z,92618.56
2023-05-19T12:28:07.378Z,92616.53
2023-05-19T12:30:36.037Z,92618.50
2023-05-19T12:33:05.005Z,92622.88
2023-05-19T12:35:36.285Z,92611.69
2023-05-19T12:38:05.901Z,92624.63
2023-05-19T12:40:36.162Z,92624.00
2023-05-19T12:43:05.649Z,92628.09
2023-05-19T12:45:36.164Z,92629.25
2023-05-19T12:48:06.817Z,92633.25
2023-05-19T12:50:39.288Z,92633.72
2023-05-19T12:53:10.606Z,92636.25
2023-05-19T12:55:42.838Z,92635.81
2023-05-19T12:58:12.590Z,92633.09
2023-05-19T13:00:47.610Z,92634.53
2023-05-19T13:03:19.039Z,92632.09
2023-05-19T13:05:51.795Z,92623.41
2023-05-19T13:08:21.910Z,92626.75
2023-05-19T13:10:51.172Z,92622.38
2023-05-19T13:13:20.166Z,92628.19
2023-05-19T13:15:49.714Z,92614.34
2023-05-19T13:18:19.075Z,92622.56
2023-05-19T13:20:50.348Z,92620.22
2023-05-19T13:23:19.397Z,92612.63
2023-05-19T13:25:48.089Z,92614.72
2023-05-19T13:28:16.625Z,92612.88
2023-05-19T13:30:46.324Z,92612.38
2023-05-19T13:33:14.974Z,92600.84
2023-05-19T13:35:43.573Z,92606.47
2023-05-19T13:38:13.482Z,92610.75
2023-05-19T13:40:42.025Z,92611.97
2023-05-19T13:43:10.590Z,92614.44
2023-05-19T13:45:39.286Z,92614.91
2023-05-19T13:48:08.635Z,92618.59
2023-05-19T13:50:37.210Z,92609.66
2023-05-19T13:53:05.856Z,92600.91
2023-05-19T13:55:35.777Z,92603.28
2023-05-19T13:58:04.596Z,92604.41
2023-05-19T14:00:33.584Z,92598.97
2023-05-19T14:03:02.354Z,92612.53
2023-05-19T14:05:31.226Z,92606.56
2023-05-19T14:08:01.189Z,92605.59
2023-05-19T14:10:29.766Z,92617.09
2023-05-19T14:15:34.296Z,92610.56
2023-05-19T14:18:04.790Z,92614.00
2023-05-19T14:20:34.198Z,92599.16
2023-05-19T14:23:03.414Z,92620.66
2023-05-19T14:25:31.993Z,92616.69
2023-05-19T14:28:02.684Z,92613.34
2023-05-19T14:30:31.250Z,92616.47
2023-05-19T14:33:00.248Z,92623.00
2023-05-19T14:35:28.962Z,92619.03
2023-05-19T14:37:57.717Z,92622.94
2023-05-19T14:40:26.221Z,92622.94
2023-05-19T14:42:54.828Z,92618.38
2023-05-19T14:45:24.853Z,92616.84
2023-05-19T14:47:53.369Z,92620.06
2023-05-19T14:50:22.208Z,92620.47
2023-05-19T14:52:50.723Z,92614.31
2023-05-19T14:55:19.420Z,92612.88
2023-05-19T14:57:48.029Z,92614.09
2023-05-19T15:00:17.012Z,92616.59
2023-05-19T15:02:46.994Z,92614.66
2023-05-19T15:05:16.220Z,92614.69
2023-05-19T15:07:44.806Z,92618.88
2023-05-19T15:10:13.601Z,92614.63
2023-05-19T15:12:42.081Z,92619.34
2023-05-19T15:15:11.927Z,92616.09
2023-05-19T15:17:41.089Z,92620.06
2023-05-19T15:20:12.869Z,92617.03
2023-05-19T15:22:41.429Z,92623.00
2023-05-19T15:25:11.553Z,92614.03
2023-05-19T15:27:40.188Z,92611.56
2023-05-19T15:30:09.917Z,92613.59
2023-05-19T15:32:38.731Z,92616.25
2023-05-19T15:35:08.926Z,92610.84
2023-05-19T15:37:39.048Z,92611.16
2023-05-19T15:40:09.635Z,92610.53
2023-05-19T15:42:38.444Z,92608.47
2023-05-19T15:45:09.234Z,92610.31
2023-05-19T15:47:39.237Z,92612.06
2023-05-19T15:50:09.879Z,92609.03
2023-05-19T15:52:40.047Z,92619.00
2023-05-19T15:55:10.494Z,92607.47
2023-05-19T15:57:39.423Z,92617.25
2023-05-19T16:00:09.800Z,92610.47
2023-05-19T16:02:38.704Z,92610.03
2023-05-19T16:05:07.767Z,92603.94
2023-05-19T16:07:36.583Z,92612.84
2023-05-19T16:10:07.834Z,92608.97
2023-05-19T16:12:36.893Z,92604.69
2023-05-19T16:15:06.272Z,92604.66
2023-05-19T16:17:35.660Z,92600.31
2023-05-19T16:20:04.444Z,92598.13
2023-05-19T16:22:33.218Z,92601.00
2023-05-19T16:25:01.759Z,92598.81
2023-05-19T16:27:31.916Z,92598.59
2023-05-19T16:30:01.249Z,92600.34
2023-05-19T16:32:30.178Z,92591.88
2023-05-19T16:34:58.685Z,92591.91
2023-05-19T16:37:27.449Z,92597.72
2023-05-19T16:39:56.023Z,92594.38
2023-05-19T16:42:24.999Z,92598.97
2023-05-19T16:44:55.142Z,92601.34
2023-05-19T16:47:23.927Z,92588.50
2023-05-19T16:49:52.458Z,92599.22
2023-05-19T16:52:21.300Z,92590.56
2023-05-19T16:54:49.846Z,92589.06
2023-05-19T16:57:18.377Z,92589.41
2023-05-19T16:59:46.952Z,92586.63
2023-05-19T17:02:16.896Z,92587.44
2023-05-19T17:04:45.615Z,92588.94
2023-05-19T17:07:15.776Z,92586.28
2023-05-19T17:09:44.492Z,92590.69
2023-05-19T17:12:13.427Z,92591.31
2023-05-19T17:14:43.600Z,92592.47
2023-05-19T17:17:12.236Z,92592.13
2023-05-19T17:19:42.683Z,92603.09
2023-05-19T17:22:11.315Z,92589.06
2023-05-19T17:24:39.836Z,92591.41
2023-05-19T17:27:08.416Z,92593.38
2023-05-19T17:29:37.121Z,92593.03
2023-05-19T17:32:06.943Z,92586.00
2023-05-19T17:34:35.596Z,92586.50
2023-05-19T17:37:06.038Z,92586.16
2023-05-19T17:39:34.530Z,92584.19
2023-05-19T17:42:03.104Z,92590.38
2023-05-19T17:44:31.622Z,92587.28
2023-05-19T17:47:01.664Z,92584.97
2023-05-19T17:49:30.177Z,92575.25
2023-05-19T17:51:59.474Z,92577.44
2023-05-19T17:54:30.319Z,92580.66
2023-05-19T17:57:03.423Z,92578.50
2023-05-19T17:59:32.849Z,92582.00
2023-05-19T18:02:02.159Z,92589.25
2023-05-19T18:04:31.679Z,92576.16
2023-05-19T18:07:00.928Z,92580.81
2023-05-19T18:09:33.798Z,92588.28
2023-05-19T18:12:02.619Z,92583.56
2023-05-19T18:14:31.366Z,92579.31
2023-05-19T18:17:00.134Z,92583.81
2023-05-19T18:19:28.762Z,92582.34
2023-05-19T18:21:57.611Z,92583.53
2023-05-19T18:24:26.364Z,92577.69
2023-05-19T18:26:56.531Z,92577.81
2023-05-19T18:29:25.094Z,92585.16
2023-05-19T18:31:53.900Z,92581.66
2023-05-19T18:34:22.441Z,92575.88
2023-05-19T18:36:51.023Z,92584.75
2023-05-19T18:39:19.809Z,92590.13
2023-05-19T18:41:48.544Z,92587.84
2023-05-19T18:44:18.454Z,92592.53
2023-05-19T18:46:47.164Z,92597.19
2023-05-19T18:49:15.787Z,92598.34
2023-05-19T18:51:44.504Z,92599.84
2023-05-19T18:54:13.016Z,92586.28
2023-05-19T18:56:41.959Z,92596.44
2023-05-19T18:59:11.516Z,92594.09
2023-05-19T19:01:41.727Z,92593.34
2023-05-19T19:04:10.357Z,92592.59
2023-05-19T19:06:39.143Z,92600.28
2023-05-19T19:09:07.971Z,92588.72
2023-05-19T19:11:36.482Z,92584.84
2023-05-19T19:14:05.157Z,92592.19
2023-05-19T19:16:34.076Z,92596.88
2023-05-19T19:19:04.189Z,92594.50
2023-05-19T19:21:32.733Z,92593.34
2023-05-19T19:24:02.140Z,92601.81
2023-05-19T19:26:30.655Z,92605.34
2023-05-19T19:28:59.241Z,92597.22
2023-05-19T19:31:28.860Z,92592.25
2023-05-19T19:34:00.322Z,92599.63
2023-05-19T19:36:30.455Z,92613.09
2023-05-19T19:38:58.971Z,92610.41
2023-05-19T19:41:29.817Z,92608.09
2023-05-19T19:43:58.367Z,92606.13
2023-05-19T19:46:26.944Z,92607.72
2023-05-19T19:48:59.296Z,92597.69
2023-05-19T19:51:29.733Z,92597.28
2023-05-19T19:53:58.525Z,92604.22
2023-05-19T19:56:27.763Z,92598.44
2023-05-19T19:58:59.154Z,92603.06
2023-05-19T20:01:28.411Z,92604.97
2023-05-19T20:03:57.543Z,92605.38
2023-05-19T20:06:26.162Z,92596.09
2023-05-19T20:08:56.122Z,92604.25
2023-05-19T20:11:26.853Z,92601.16
2023-05-19T20:13:55.482Z,92596.50
2023-05-19T20:16:24.680Z,92594.22
2023-05-19T20:18:53.276Z,92591.13
2023-05-19T20:21:22.071Z,92592.66
2023-05-19T20:23:51.204Z,92592.66
2023-05-19T20:26:22.564Z,92593.44
2023-05-19T20:28:51.120Z,92595.34
2023-05-19T20:31:21.722Z,92590.72
2023-05-19T20:33:50.279Z,92594.59
2023-05-19T20:36:21.826Z,92603.84
2023-05-19T20:38:50.550Z,92596.53
2023-05-19T20:41:20.791Z,92601.16
2023-05-19T20:43:49.333Z,92601.16
2023-05-19T20:46:18.209Z,92598.84
2023-05-19T20:48:46.732Z,92595.75
2023-05-19T20:51:15.469Z,92594.22
2023-05-19T20:53:44.054Z,92588.81
2023-05-19T20:56:13.333Z,92588.03
2023-05-19T20:58:43.427Z,92593.81
2023-05-19T21:01:11.985Z,92586.50
2023-05-19T21:03:40.512Z,92582.66
2023-05-19T21:06:09.066Z,92586.50
2023-05-19T21:08:37.771Z,92584.97
2023-05-19T21:11:06.370Z,92585.72
2023-05-19T21:13:39.346Z,92584.94
2023-05-19T21:16:09.551Z,92581.13
2023-05-19T21:18:38.064Z,92569.56
2023-05-19T21:21:06.765Z,92571.06
2023-05-19T21:23:35.332Z,92566.06
2023-05-19T21:26:05.073Z,92570.72
2023-05-19T21:28:33.841Z,92566.47
2023-05-19T21:31:02.418Z,92564.91
2023-05-19T21:33:32.374Z,92564.53
2023-05-19T21:36:01.607Z,92555.66
2023-05-19T21:38:30.676Z,92557.59
2023-05-19T21:40:59.221Z,92551.44
2023-05-19T21:43:27.761Z,92548.75
2023-05-19T21:45:56.508Z,92553.34
2023-05-19T21:48:25.202Z,92554.13
2023-05-19T21:50:56.217Z,92549.88
2023-05-19T21:53:25.629Z,92541.78
2023-05-19T21:55:54.244Z,92546.41
2023-05-19T21:58:22.881Z,92544.44
2023-05-19T22:00:51.658Z,92541.72
2023-05-19T22:03:20.635Z,92537.94
2023-05-19T22:05:52.821Z,92543.72
2023-05-19T22:08:23.484Z,92534.06
2023-05-19T22:10:52.855Z,92536.34
2023-05-19T22:13:22.712Z,92529.81
2023-05-19T22:15:51.277Z,92527.13
2023-05-19T22:18:19.921Z,92527.13
2023-05-19T22:20:48.420Z,92523.69
2023-05-19T22:23:16.962Z,92519.47
2023-05-19T22:25:47.261Z,92517.44
2023-05-19T22:28:15.994Z,92520.94
2023-05-19T22:30:44.885Z,92517.09
2023-05-19T22:33:13.896Z,92513.28
2023-05-19T22:35:43.104Z,92511.72
2023-05-19T22:38:11.899Z,92513.28
2023-05-19T22:40:40.722Z,92503.63
2023-05-19T22:43:10.639Z,92498.63
2023-05-19T22:45:39.227Z,92502.88
2023-05-19T22:48:08.335Z,92499.78
2023-05-19T22:50:37.140Z,92503.22
2023-05-19T22:53:05.675Z,92497.09
2023-05-19T22:55:34.337Z,92496.69
2023-05-19T22:58:03.407Z,92490.16
2023-05-19T23:00:33.793Z,92496.69
2023-05-19T23:03:02.605Z,92494.78
2023-05-19T23:05:31.233Z,92485.94
2023-05-19T23:07:59.832Z,92490.94
2023-05-19T23:10:28.638Z,92487.88
2023-05-19T23:12:57.136Z,92486.72
2023-05-19T23:15:25.845Z,92483.25
2023-05-19T23:17:56.005Z,92484.78
2023-05-19T23:20:24.550Z,92484.03
2023-05-19T23:22:53.262Z,92480.94
2023-05-19T23:25:21.787Z,92484.03
2023-05-19T23:27:50.289Z,92470.16
2023-05-19T23:30:19.168Z,92462.06
2023-05-19T23:32:47.681Z,92469.38
2023-05-19T23:35:18.780Z,92475.94
2023-05-19T23:37:47.281Z,92463.63
2023-05-19T23:40:16.908Z,92455.50
2023-05-19T23:42:45.681Z,92461.28
2023-05-19T23:45:15.400Z,92461.63
2023-05-19T23:47:44.178Z,92461.69
2023-05-19T23:50:12.931Z,92453.59
2023-05-19T23:52:42.827Z,92460.91
2023-05-19T23:55:13.241Z,92453.22
2023-05-19T23:57:42.000Z,92458.97
